createdAt,value
2018-12-21T00:02:02.084Z,100704.72
2018-12-21T00:04:29.504Z,100703.85
2018-12-21T00:06:57.017Z,100689.20
2018-12-21T00:09:24.492Z,100689.17
2018-12-21T00:11:51.934Z,100688.31
2018-12-21T00:14:19.398Z,100692.17
2018-12-21T00:16:46.869Z,100696.08
2018-12-21T00:19:14.259Z,100696.04
2018-12-21T00:21:41.665Z,100691.31
2018-12-21T00:24:09.058Z,100681.41
2018-12-21T00:26:36.455Z,100689.98
2018-12-21T00:29:03.889Z,100683.02
2018-12-21T00:31:36.811Z,100679.17
2018-12-21T00:34:10.692Z,100665.41
2018-12-21T00:36:43.557Z,100661.07
2018-12-21T00:39:16.467Z,100654.20
2018-12-21T00:41:43.428Z,100652.86
2018-12-21T00:44:11.880Z,100645.14
2018-12-21T00:46:41.224Z,100651.14
2018-12-21T00:49:08.615Z,100646.48
2018-12-21T00:51:36.019Z,100641.68
2018-12-21T00:54:03.456Z,100644.70
2018-12-21T00:56:30.899Z,100641.67
2018-12-21T00:58:58.296Z,100642.97
2018-12-21T01:01:25.742Z,100629.61
2018-12-21T01:03:53.128Z,100635.19
2018-12-21T01:06:20.572Z,100630.45
2018-12-21T01:08:47.959Z,100634.79
2018-12-21T01:11:15.365Z,100633.96
2018-12-21T01:13:42.764Z,100633.09
2018-12-21T01:16:10.164Z,100631.34
2018-12-21T01:18:37.604Z,100627.03
2018-12-21T01:21:06.848Z,100627.94
2018-12-21T01:23:34.293Z,100630.95
2018-12-21T01:26:01.696Z,100631.38
2018-12-21T01:28:29.084Z,100629.23
2018-12-21T01:30:56.484Z,100629.67
2018-12-21T01:33:23.888Z,100618.01
2018-12-21T01:35:51.304Z,100613.27
2018-12-21T01:38:18.717Z,100611.06
2018-12-21T01:40:46.163Z,100602.48
2018-12-21T01:43:13.561Z,100608.10
2018-12-21T01:45:40.960Z,100605.09
2018-12-21T01:48:08.365Z,100598.17
2018-12-21T01:50:35.752Z,100598.63
2018-12-21T01:53:03.146Z,100596.03
2018-12-21T01:55:30.615Z,100586.53
2018-12-21T01:58:18.428Z,100573.12
2018-12-21T02:00:45.868Z,100573.56
2018-12-21T02:03:13.272Z,100573.13
2018-12-21T02:05:40.721Z,100566.66
2018-12-21T02:08:08.139Z,100570.13
2018-12-21T02:10:35.537Z,100561.46
2018-12-21T02:13:02.983Z,100551.96
2018-12-21T02:15:30.384Z,100557.14
2018-12-21T02:17:57.776Z,100545.50
2018-12-21T02:20:25.164Z,100543.76
2018-12-21T02:22:52.752Z,100527.77
2018-12-21T02:25:20.139Z,100521.73
2018-12-21T02:27:47.532Z,100516.13
2018-12-21T02:30:14.930Z,100511.37
2018-12-21T02:32:42.416Z,100502.75
2018-12-21T02:35:09.810Z,100501.44
2018-12-21T02:37:37.205Z,100499.73
2018-12-21T02:40:06.497Z,100487.20
2018-12-21T02:42:33.897Z,100488.05
2018-12-21T02:45:01.294Z,100477.25
2018-12-21T02:47:28.773Z,100471.23
2018-12-21T02:49:56.246Z,100465.59
2018-12-21T02:52:23.735Z,100459.12
2018-12-21T02:54:51.124Z,100452.63
2018-12-21T02:57:18.517Z,100443.55
2018-12-21T02:59:45.918Z,100430.17
2018-12-21T03:02:13.456Z,100427.58
2018-12-21T03:07:07.559Z,100416.78
2018-12-21T03:09:35.037Z,100410.28
2018-12-21T03:12:02.505Z,100402.98
2018-12-21T03:14:29.910Z,100399.05
2018-12-21T03:16:57.384Z,100407.25
2018-12-21T03:19:24.994Z,100393.88
2018-12-21T03:21:52.427Z,100398.20
2018-12-21T03:24:19.829Z,100397.33
2018-12-21T03:26:47.216Z,100389.52
2018-12-21T03:29:14.629Z,100377.45
2018-12-21T03:31:42.213Z,100369.66
2018-12-21T03:34:09.696Z,100361.04
2018-12-21T03:36:37.179Z,100351.09
2018-12-21T03:39:07.275Z,100345.02
2018-12-21T03:41:35.771Z,100339.38
2018-12-21T03:44:03.202Z,100330.33
2018-12-21T03:46:30.687Z,100318.66
2018-12-21T03:48:58.177Z,100309.62
2018-12-21T03:51:25.559Z,100309.20
2018-12-21T03:53:52.973Z,100301.39
2018-12-21T03:56:20.508Z,100306.98
2018-12-21T03:58:47.965Z,100299.66
2018-12-21T04:01:15.419Z,100304.41
2018-12-21T04:03:42.830Z,100299.20
2018-12-21T04:06:10.411Z,100288.84
2018-12-21T04:08:37.820Z,100284.10
2018-12-21T04:11:05.225Z,100268.98
2018-12-21T04:13:32.619Z,100256.02
2018-12-21T04:16:00.022Z,100242.59
2018-12-21T04:18:27.412Z,100233.08
2018-12-21T04:20:54.823Z,100222.31
2018-12-21T04:23:22.304Z,100218.42
2018-12-21T04:25:49.704Z,100223.29
2018-12-21T04:28:17.084Z,100212.88
2018-12-21T04:30:44.489Z,100203.41
2018-12-21T04:33:11.968Z,100198.25
2018-12-21T04:35:39.379Z,100208.22
2018-12-21T04:38:06.857Z,100194.82
2018-12-21T04:40:34.340Z,100190.04
2018-12-21T04:43:01.737Z,100204.70
2018-12-21T04:45:29.216Z,100177.48
2018-12-21T04:47:56.604Z,100169.26
2018-12-21T04:50:24.059Z,100167.54
2018-12-21T04:52:51.465Z,100172.72
2018-12-21T04:55:18.864Z,100182.22
2018-12-21T04:57:46.252Z,100192.58
2018-12-21T05:00:13.734Z,100194.77
2018-12-21T05:02:41.141Z,100193.10
2018-12-21T05:05:08.636Z,100193.56
2018-12-21T05:07:36.116Z,100173.27
2018-12-21T05:10:04.016Z,100163.36
2018-12-21T05:12:31.415Z,100156.42
2018-12-21T05:15:05.764Z,100143.05
2018-12-21T05:17:36.202Z,100136.28
2018-12-21T05:20:16.196Z,100126.71
2018-12-21T05:22:52.064Z,100121.59
2018-12-21T05:25:20.673Z,100109.96
2018-12-21T05:27:48.044Z,100113.43
2018-12-21T05:33:31.305Z,100095.75
2018-12-21T05:44:46.000Z,100081.11
2018-12-21T05:47:13.404Z,100066.46
2018-12-21T05:50:00.357Z,100059.56
2018-12-21T05:52:34.715Z,100048.78
2018-12-21T05:55:02.166Z,100055.20
2018-12-21T05:57:29.562Z,100049.20
2018-12-21T05:59:56.940Z,100044.06
2018-12-21T06:02:24.368Z,100041.00
2018-12-21T06:04:51.760Z,100025.48
2018-12-21T06:07:33.877Z,100024.58
2018-12-21T06:10:01.470Z,100020.23
2018-12-21T06:15:43.994Z,99989.17
2018-12-21T06:18:11.389Z,99983.55
2018-12-21T06:23:34.409Z,99975.30
2018-12-21T06:29:13.677Z,99963.19
2018-12-21T06:31:44.909Z,99959.73
2018-12-21T06:34:12.292Z,99958.88
2018-12-21T06:36:39.680Z,99946.79
2018-12-21T06:39:13.295Z,99951.11
2018-12-21T06:42:00.746Z,99956.21
2018-12-21T06:44:28.125Z,99946.72
2018-12-21T06:46:55.500Z,99944.17
2018-12-21T06:49:22.888Z,99935.97
2018-12-21T06:54:46.196Z,99926.91
2018-12-21T06:57:13.569Z,99918.73
2018-12-21T06:59:40.987Z,99907.48
2018-12-21T07:02:10.335Z,99903.58
2018-12-21T07:04:37.723Z,99906.14
2018-12-21T07:07:05.098Z,99885.83
2018-12-21T07:09:45.582Z,99890.60
2018-12-21T07:12:12.963Z,99888.41
2018-12-21T07:14:40.353Z,99885.34
2018-12-21T07:17:07.753Z,99872.38
2018-12-21T07:19:35.145Z,99867.57
2018-12-21T07:22:02.533Z,99868.16
2018-12-21T07:24:29.928Z,99868.03
2018-12-21T07:26:57.308Z,99866.31
2018-12-21T07:32:19.776Z,99863.78
2018-12-21T07:34:47.166Z,99852.56
2018-12-21T07:37:30.340Z,99844.72
2018-12-21T07:39:58.786Z,99846.97
2018-12-21T07:42:26.160Z,99833.16
2018-12-21T07:44:53.545Z,99834.92
2018-12-21T07:47:20.926Z,99835.38
2018-12-21T07:49:48.312Z,99824.96
2018-12-21T07:52:15.702Z,99820.77
2018-12-21T07:54:43.084Z,99802.12
2018-12-21T07:57:10.477Z,99791.26
2018-12-21T07:59:44.424Z,99788.73
2018-12-21T08:02:11.804Z,99783.59
2018-12-21T08:04:56.927Z,99776.11
2018-12-21T08:07:26.311Z,99767.16
2018-12-21T08:09:54.628Z,99760.21
2018-12-21T08:12:23.108Z,99752.52
2018-12-21T08:14:50.491Z,99741.58
2018-12-21T08:17:17.881Z,99723.95
2018-12-21T08:22:41.492Z,99682.87
2018-12-21T08:25:09.063Z,99660.81
2018-12-21T08:27:49.516Z,99650.97
2018-12-21T08:30:16.892Z,99653.95
2018-12-21T08:32:44.313Z,99655.67
2018-12-21T08:38:07.073Z,99651.69
2018-12-21T08:40:37.541Z,99639.17
2018-12-21T08:43:06.967Z,99640.77
2018-12-21T08:45:34.361Z,99638.23
2018-12-21T08:50:58.036Z,99633.13
2018-12-21T08:53:25.403Z,99625.84
2018-12-21T08:55:52.788Z,99605.06
2018-12-21T08:58:20.167Z,99609.82
2018-12-21T09:00:47.575Z,99606.41
2018-12-21T09:03:14.956Z,99602.91
2018-12-21T09:08:40.712Z,99609.39
2018-12-21T09:11:08.097Z,99597.69
2018-12-21T09:13:36.081Z,99598.55
2018-12-21T09:16:03.587Z,99592.46
2018-12-21T09:18:30.969Z,99594.99
2018-12-21T09:20:59.317Z,99591.50
2018-12-21T09:23:26.693Z,99604.20
2018-12-21T09:25:54.080Z,99607.28
2018-12-21T09:28:21.517Z,99600.75
2018-12-21T09:30:48.905Z,99587.68
2018-12-21T09:33:16.319Z,99585.47
2018-12-21T09:35:43.705Z,99572.13
2018-12-21T09:38:11.097Z,99558.31
2018-12-21T09:40:38.548Z,99558.14
2018-12-21T09:43:10.416Z,99545.64
2018-12-21T09:45:38.731Z,99547.75
2018-12-21T09:51:02.396Z,99535.55
2018-12-21T09:53:29.783Z,99543.19
2018-12-21T09:55:59.163Z,99547.67
2018-12-21T09:58:26.545Z,99545.75
2018-12-21T10:00:53.919Z,99549.08
2018-12-21T10:03:21.315Z,99522.02
2018-12-21T10:05:48.691Z,99521.16
2018-12-21T10:08:16.087Z,99518.64
2018-12-21T10:10:43.469Z,99515.81
2018-12-21T10:13:10.859Z,99525.83
2018-12-21T10:15:38.232Z,99533.36
2018-12-21T10:18:05.622Z,99526.91
2018-12-21T10:20:33.009Z,99521.45
2018-12-21T10:23:00.485Z,99522.41
2018-12-21T10:25:33.612Z,99515.63
2018-12-21T10:28:01.021Z,99508.89
2018-12-21T10:30:28.496Z,99517.84
2018-12-21T10:32:55.889Z,99523.54
2018-12-21T10:35:23.282Z,99525.09
2018-12-21T10:37:50.723Z,99516.03
2018-12-21T10:40:20.149Z,99524.80
2018-12-21T10:42:47.555Z,99525.12
2018-12-21T10:45:14.947Z,99522.91
2018-12-21T10:47:42.315Z,99527.53
2018-12-21T10:50:10.128Z,99517.26
2018-12-21T10:52:38.986Z,99519.05
2018-12-21T10:55:06.653Z,99529.19
2018-12-21T10:57:34.035Z,99523.79
2018-12-21T11:00:01.424Z,99526.27
2018-12-21T11:02:28.817Z,99519.84
2018-12-21T11:04:56.239Z,99513.80
2018-12-21T11:07:23.611Z,99516.19
2018-12-21T11:09:50.996Z,99515.52
2018-12-21T11:12:21.915Z,99515.30
2018-12-21T11:15:00.128Z,99508.34
2018-12-21T11:17:27.620Z,99513.84
2018-12-21T11:19:55.029Z,99513.49
2018-12-21T11:22:22.422Z,99510.10
2018-12-21T11:24:49.840Z,99511.40
2018-12-21T11:27:17.227Z,99509.10
2018-12-21T11:29:44.620Z,99512.70
2018-12-21T11:32:15.561Z,99499.80
2018-12-21T11:34:43.005Z,99504.89
2018-12-21T11:37:10.387Z,99499.56
2018-12-21T11:39:37.797Z,99510.09
2018-12-21T11:42:05.173Z,99507.08
2018-12-21T11:44:32.562Z,99511.81
2018-12-21T11:47:01.886Z,99509.41
2018-12-21T11:49:29.453Z,99511.72
2018-12-21T11:51:56.850Z,99513.87
2018-12-21T11:54:25.231Z,99516.41
2018-12-21T11:56:52.625Z,99514.73
2018-12-21T11:59:20.007Z,99512.94
2018-12-21T12:01:47.439Z,99509.39
2018-12-21T12:04:14.815Z,99515.20
2018-12-21T12:06:42.295Z,99500.44
2018-12-21T12:09:09.717Z,99511.59
2018-12-21T12:11:37.156Z,99507.09
2018-12-21T12:14:04.600Z,99509.06
2018-12-21T12:16:32.121Z,99511.67
2018-12-21T12:18:59.506Z,99524.84
2018-12-21T12:21:26.967Z,99522.27
2018-12-21T12:23:54.404Z,99519.62
2018-12-21T12:26:21.802Z,99516.38
2018-12-21T12:28:49.189Z,99515.67
2018-12-21T12:31:16.632Z,99526.19
2018-12-21T12:33:44.011Z,99531.75
2018-12-21T12:36:11.414Z,99519.70
2018-12-21T12:38:39.369Z,99525.22
2018-12-21T12:41:07.071Z,99527.34
2018-12-21T12:43:34.580Z,99524.48
2018-12-21T12:46:01.968Z,99530.81
2018-12-21T12:48:29.414Z,99532.95
2018-12-21T12:50:56.808Z,99519.95
2018-12-21T12:53:24.261Z,99528.35
2018-12-21T12:55:51.664Z,99513.71
2018-12-21T12:58:20.012Z,99514.05
2018-12-21T13:00:48.370Z,99508.39
2018-12-21T13:03:16.743Z,99512.72
2018-12-21T13:05:44.133Z,99511.66
2018-12-21T13:08:11.551Z,99522.63
2018-12-21T13:10:38.928Z,99529.12
2018-12-21T13:13:06.497Z,99527.00
2018-12-21T13:15:33.959Z,99525.08
2018-12-21T13:18:01.395Z,99526.06
2018-12-21T13:20:28.860Z,99537.95
2018-12-21T13:22:56.357Z,99544.45
2018-12-21T13:25:23.816Z,99539.22
2018-12-21T13:27:55.308Z,99538.16
2018-12-21T13:30:22.685Z,99559.20
2018-12-21T13:32:50.127Z,99575.88
2018-12-21T13:35:17.507Z,99558.70
2018-12-21T13:37:44.915Z,99561.73
2018-12-21T13:40:15.768Z,99550.86
2018-12-21T13:42:44.177Z,99566.55
2018-12-21T13:45:11.631Z,99565.09
2018-12-21T13:47:39.074Z,99567.25
2018-12-21T13:50:08.672Z,99563.00
2018-12-21T13:52:36.056Z,99559.69
2018-12-21T13:55:03.951Z,99561.41
2018-12-21T13:57:31.359Z,99564.11
2018-12-21T13:59:59.723Z,99568.97
2018-12-21T14:02:27.113Z,99560.09
2018-12-21T14:04:54.567Z,99582.73
2018-12-21T14:07:21.939Z,99572.48
2018-12-21T14:09:49.349Z,99589.48
2018-12-21T14:12:17.741Z,99595.00
2018-12-21T14:14:45.136Z,99589.71
2018-12-21T14:17:12.511Z,99596.91
2018-12-21T14:19:39.976Z,99603.86
2018-12-21T14:22:07.395Z,99610.84
2018-12-21T14:24:34.803Z,99608.89
2018-12-21T14:27:02.171Z,99625.62
2018-12-21T14:29:29.562Z,99621.81
2018-12-21T14:31:56.948Z,99614.48
2018-12-21T14:34:24.379Z,99612.17
2018-12-21T14:36:51.737Z,99625.39
2018-12-21T14:39:19.142Z,99622.55
2018-12-21T14:41:46.532Z,99623.67
2018-12-21T14:44:13.918Z,99623.64
2018-12-21T14:46:43.280Z,99622.96
2018-12-21T14:49:10.689Z,99632.49
2018-12-21T14:51:38.069Z,99618.00
2018-12-21T14:54:06.546Z,99615.50
2018-12-21T14:56:33.943Z,99615.20
2018-12-21T14:59:01.325Z,99618.34
2018-12-21T15:01:28.730Z,99624.77
2018-12-21T15:03:56.103Z,99635.14
2018-12-21T15:06:23.496Z,99648.22
2018-12-21T15:08:50.867Z,99648.34
2018-12-21T15:11:22.118Z,99651.52
2018-12-21T15:13:55.745Z,99670.47
2018-12-21T15:16:42.477Z,99674.20
2018-12-21T15:19:13.577Z,99670.70
2018-12-21T15:21:40.965Z,99689.79
2018-12-21T15:24:29.727Z,99687.14
2018-12-21T15:27:09.722Z,99697.97
2018-12-21T15:29:56.695Z,99709.73
2018-12-21T15:35:25.166Z,99723.63
2018-12-21T15:37:52.551Z,99720.03
2018-12-21T15:40:19.969Z,99737.97
2018-12-21T15:42:47.722Z,99748.09
2018-12-21T15:45:15.102Z,99750.70
2018-12-21T15:47:42.485Z,99747.88
2018-12-21T15:50:25.400Z,99756.79
2018-12-21T15:52:52.889Z,99740.58
2018-12-21T15:55:20.265Z,99753.02
2018-12-21T15:57:47.670Z,99766.88
2018-12-21T16:00:31.985Z,99763.73
2018-12-21T16:02:59.569Z,99762.01
2018-12-21T16:05:40.153Z,99771.18
2018-12-21T16:08:31.181Z,99769.17
2018-12-21T16:11:04.651Z,99777.48
2018-12-21T16:16:30.805Z,99796.69
2018-12-21T16:19:04.054Z,99798.76
2018-12-21T16:21:31.447Z,99787.48
2018-12-21T16:24:06.668Z,99805.00
2018-12-21T16:26:28.204Z,99804.67
2018-12-21T16:28:55.602Z,99805.00
2018-12-21T16:31:23.001Z,99808.66
2018-12-21T16:33:50.477Z,99811.81
2018-12-21T16:36:17.856Z,99813.24
2018-12-21T16:38:45.253Z,99805.31
2018-12-21T16:41:12.691Z,99802.30
2018-12-21T16:43:40.079Z,99826.80
2018-12-21T16:46:07.463Z,99831.20
2018-12-21T16:48:34.879Z,99817.44
2018-12-21T16:51:02.262Z,99837.88
2018-12-21T16:53:29.638Z,99842.47
2018-12-21T16:55:57.019Z,99859.80
2018-12-21T16:58:26.389Z,99850.87
2018-12-21T17:01:08.959Z,99843.81
2018-12-21T17:03:36.353Z,99851.34
2018-12-21T17:06:03.816Z,99845.05
2018-12-21T17:08:52.897Z,99869.47
2018-12-21T17:11:20.439Z,99854.63
2018-12-21T17:16:46.339Z,99863.50
2018-12-21T17:19:13.948Z,99872.01
2018-12-21T17:21:41.331Z,99876.20
2018-12-21T17:24:08.756Z,99879.51
2018-12-21T17:26:36.325Z,99886.28
2018-12-21T17:29:03.706Z,99886.20
2018-12-21T17:31:31.104Z,99898.66
2018-12-21T17:33:58.494Z,99896.38
2018-12-21T17:36:26.197Z,99905.77
2018-12-21T17:38:53.575Z,99913.77
2018-12-21T17:41:20.964Z,99909.43
2018-12-21T17:43:48.346Z,99910.48
2018-12-21T17:46:15.733Z,99933.41
2018-12-21T17:48:43.111Z,99919.86
2018-12-21T17:51:11.848Z,99929.00
2018-12-21T17:53:39.236Z,99942.05
2018-12-21T17:56:06.632Z,99950.91
2018-12-21T17:58:34.214Z,99944.65
2018-12-21T18:01:01.939Z,99966.48
2018-12-21T18:03:30.016Z,99963.77
2018-12-21T18:05:57.403Z,99969.77
2018-12-21T18:08:24.931Z,99973.87
2018-12-21T18:10:52.357Z,99981.84
2018-12-21T18:13:19.748Z,99979.79
2018-12-21T18:15:47.146Z,99989.08
2018-12-21T18:18:14.519Z,99987.77
2018-12-21T18:20:41.899Z,99985.69
2018-12-21T18:23:11.600Z,99991.00
2018-12-21T18:25:39.080Z,99989.02
2018-12-21T18:28:11.097Z,99996.22
2018-12-21T18:30:36.599Z,99998.91
2018-12-21T18:33:10.435Z,99996.31
2018-12-21T18:35:33.792Z,99996.22
2018-12-21T18:38:01.269Z,100013.86
2018-12-21T18:40:28.876Z,100007.36
2018-12-21T18:42:56.273Z,100012.83
2018-12-21T18:45:23.673Z,100019.20
2018-12-21T18:47:51.067Z,100031.25
2018-12-21T18:50:18.460Z,100026.52
2018-12-21T18:52:45.864Z,100033.64
2018-12-21T18:55:14.355Z,100034.74
2018-12-21T18:57:41.807Z,100035.97
2018-12-21T19:00:12.925Z,100036.41
2018-12-21T19:02:40.320Z,100036.91
2018-12-21T19:05:07.761Z,100044.66
2018-12-21T19:07:35.151Z,100054.58
2018-12-21T19:10:03.962Z,100055.30
2018-12-21T19:12:31.583Z,100053.90
2018-12-21T19:14:58.986Z,100063.62
2018-12-21T19:17:29.577Z,100056.58
2018-12-21T19:20:00.284Z,100064.91
2018-12-21T19:22:27.789Z,100074.99
2018-12-21T19:24:55.258Z,100063.09
2018-12-21T19:27:22.648Z,100068.42
2018-12-21T19:29:50.040Z,100082.75
2018-12-21T19:32:17.446Z,100073.18
2018-12-21T19:34:44.835Z,100086.14
2018-12-21T19:37:12.229Z,100091.80
2018-12-21T19:39:39.629Z,100094.69
2018-12-21T19:42:07.098Z,100101.06
2018-12-21T19:44:34.506Z,100099.78
2018-12-21T19:47:02.824Z,100110.21
2018-12-21T19:49:30.339Z,100113.77
2018-12-21T19:51:57.728Z,100103.54
2018-12-21T19:54:25.146Z,100100.34
2018-12-21T19:57:04.455Z,100110.84
2018-12-21T19:59:26.625Z,100108.33
2018-12-21T20:01:54.012Z,100103.70
2018-12-21T20:04:21.399Z,100113.73
2018-12-21T20:06:48.788Z,100109.69
2018-12-21T20:09:16.254Z,100111.13
2018-12-21T20:11:43.636Z,100118.39
2018-12-21T20:14:12.997Z,100107.02
2018-12-21T20:16:40.397Z,100121.20
2018-12-21T20:19:07.792Z,100115.03
2018-12-21T20:21:35.171Z,100115.61
2018-12-21T20:24:02.611Z,100119.78
2018-12-21T20:26:29.999Z,100119.96
2018-12-21T20:28:57.403Z,100124.92
2018-12-21T20:31:24.822Z,100127.53
2018-12-21T20:33:52.199Z,100129.31
2018-12-21T20:36:19.631Z,100132.77
2018-12-21T20:38:47.142Z,100133.14
2018-12-21T20:41:14.533Z,100126.55
2018-12-21T20:43:41.920Z,100138.19
2018-12-21T20:46:09.316Z,100136.50
2018-12-21T20:48:36.739Z,100138.08
2018-12-21T20:51:04.199Z,100138.49
2018-12-21T20:53:31.677Z,100152.09
2018-12-21T20:55:59.092Z,100154.57
2018-12-21T20:58:28.179Z,100170.97
2018-12-21T21:00:55.580Z,100154.55
2018-12-21T21:03:22.963Z,100162.66
2018-12-21T21:05:51.288Z,100169.03
2018-12-21T21:08:19.667Z,100161.85
2018-12-21T21:10:47.064Z,100163.83
2018-12-21T21:13:19.168Z,100181.33
2018-12-21T21:15:43.845Z,100179.71
2018-12-21T21:18:11.238Z,100188.09
2018-12-21T21:20:38.632Z,100189.95
2018-12-21T21:23:06.017Z,100190.33
2018-12-21T21:25:34.039Z,100184.00
2018-12-21T21:28:01.421Z,100191.33
2018-12-21T21:30:30.552Z,100191.00
2018-12-21T21:32:57.938Z,100188.08
2018-12-21T21:35:25.412Z,100195.95
2018-12-21T21:37:52.903Z,100194.10
2018-12-21T21:40:20.307Z,100181.59
2018-12-21T21:42:47.848Z,100191.88
2018-12-21T21:45:15.250Z,100192.53
2018-12-21T21:47:42.676Z,100184.28
2018-12-21T21:50:10.115Z,100189.72
2018-12-21T21:52:37.555Z,100196.92
2018-12-21T21:55:05.285Z,100193.83
2018-12-21T21:57:39.204Z,100196.32
2018-12-21T22:00:02.076Z,100202.63
2018-12-21T22:02:29.471Z,100204.79
2018-12-21T22:04:56.863Z,100201.15
2018-12-21T22:07:24.260Z,100199.83
2018-12-21T22:09:57.036Z,100209.45
2018-12-21T22:12:27.576Z,100212.35
2018-12-21T22:14:54.970Z,100211.87
2018-12-21T22:17:25.679Z,100223.91
2018-12-21T22:19:53.074Z,100225.33
2018-12-21T22:22:20.506Z,100227.92
2018-12-21T22:24:51.193Z,100217.98
2018-12-21T22:27:18.583Z,100218.63
2018-12-21T22:29:45.976Z,100213.84
2018-12-21T22:32:13.506Z,100222.86
2018-12-21T22:34:40.917Z,100219.50
2018-12-21T22:37:08.385Z,100224.89
2018-12-21T22:39:35.824Z,100234.55
2018-12-21T22:42:03.264Z,100235.67
2018-12-21T22:44:30.659Z,100238.11
2018-12-21T22:46:58.043Z,100235.94
2018-12-21T22:49:25.561Z,100232.95
2018-12-21T22:51:52.947Z,100227.65
2018-12-21T22:54:20.392Z,100214.35
2018-12-21T22:56:47.781Z,100237.53
2018-12-21T22:59:15.175Z,100237.69
2018-12-21T23:01:42.615Z,100245.29
2018-12-21T23:04:10.017Z,100241.98
2018-12-21T23:06:37.425Z,100248.42
2018-12-21T23:09:05.529Z,100243.33
2018-12-21T23:11:33.021Z,100244.96
2018-12-21T23:14:00.447Z,100255.87
2018-12-21T23:16:33.634Z,100245.02
2018-12-21T23:19:01.036Z,100249.69
2018-12-21T23:21:28.428Z,100254.28
2018-12-21T23:23:55.828Z,100248.11
2018-12-21T23:26:23.275Z,100244.14
2018-12-21T23:28:50.665Z,100244.58
2018-12-21T23:31:18.056Z,100257.27
2018-12-21T23:33:45.461Z,100246.27
2018-12-21T23:36:12.919Z,100251.58
2018-12-21T23:38:40.340Z,100244.35
2018-12-21T23:41:07.732Z,100239.92
2018-12-21T23:43:42.926Z,100244.30
2018-12-21T23:46:04.564Z,100236.44
2018-12-21T23:48:32.917Z,100230.37
2018-12-21T23:51:01.346Z,100232.31
2018-12-21T23:53:28.744Z,100240.88
2018-12-21T23:55:56.161Z,100230.97
2018-12-21T23:58:23.548Z,100228.73
